Time;durP1;ratioP1;P1;durP2;ratioP2;P2;SDS_P1;SDS_P2;PMS_P1;PMS_P2;Temp;Humidity;BMP_temperature;BMP_pressure;BME280_temperature;BME280_humidity;BME280_pressure;Samples;Min_cycle;Max_cycle;Signal;HPM_P1;HPM_P2
2022/10/25 00:01:18;;;;;;;3.22;1.60;;;11.90;85.60;;;10.55;100.00;96241.78;4778176;29;25691;-66
2022/10/25 00:03:45;;;;;;;3.42;1.63;;;12.00;85.60;;;10.54;100.00;96239.34;4799046;29;20465;-65
2022/10/25 00:06:11;;;;;;;3.15;1.83;;;11.90;85.70;;;10.50;100.00;96243.34;4780506;29;20331;-66
2022/10/25 00:08:37;;;;;;;2.58;1.52;;;11.80;86.00;;;10.45;100.00;96246.53;4776503;29;20422;-66
2022/10/25 00:11:04;;;;;;;6.50;1.50;;;11.70;86.50;;;10.44;100.00;96250.16;4770972;29;20633;-67
2022/10/25 00:13:31;;;;;;;3.88;1.75;;;11.70;86.60;;;10.42;100.00;96246.91;4771831;29;20544;-66
2022/10/25 00:15:57;;;;;;;3.40;1.52;;;11.70;86.70;;;10.40;100.00;96248.88;4771841;29;20380;-66
2022/10/25 00:18:23;;;;;;;2.30;1.40;;;11.70;86.80;;;10.36;100.00;96247.63;4770818;29;20569;-66
2022/10/25 00:20:49;;;;;;;5.22;1.70;;;11.60;86.90;;;10.34;100.00;96245.19;4739965;29;20731;-66
2022/10/25 00:23:15;;;;;;;4.78;1.55;;;11.60;87.10;;;10.32;100.00;96251.63;4746325;29;20589;-66
2022/10/25 00:25:43;;;;;;;5.90;1.42;;;11.60;87.00;;;10.31;100.00;96247.34;4772567;29;20216;-66
2022/10/25 00:28:09;;;;;;;3.40;1.40;;;11.60;87.00;;;10.28;100.00;96243.28;4758431;29;20430;-65
2022/10/25 00:30:35;;;;;;;2.20;1.60;;;11.60;87.20;;;10.27;100.00;96246.91;4770544;29;20685;-65
2022/10/25 00:33:02;;;;;;;4.43;1.60;;;11.60;87.00;;;10.26;100.00;96255.00;4750975;29;20414;-65
2022/10/25 00:35:28;;;;;;;7.22;1.90;;;11.60;86.90;;;10.25;100.00;96250.72;4766806;29;20455;-65
2022/10/25 00:37:54;;;;;;;4.28;1.85;;;11.60;86.80;;;10.23;100.00;96248.28;4777241;29;20903;-65
2022/10/25 00:40:21;;;;;;;4.05;1.60;;;11.60;86.80;;;10.22;100.00;96241.41;4765779;29;20220;-65
2022/10/25 00:42:47;;;;;;;6.93;1.85;;;11.60;86.90;;;10.20;100.00;96243.38;4768486;29;20611;-65
2022/10/25 00:45:20;;;;;;;3.17;2.00;;;11.60;86.80;;;10.20;100.00;96246.00;4772290;29;20284;-65
2022/10/25 00:47:58;;;;;;;3.85;1.70;;;11.60;87.00;;;10.19;100.00;96247.00;4787693;29;20667;-65
2022/10/25 00:50:46;;;;;;;4.15;1.80;;;11.50;86.90;;;10.17;100.00;96248.97;4791100;29;20596;-64
2022/10/25 00:53:25;;;;;;;4.30;1.73;;;11.50;86.90;;;10.16;100.00;96246.50;4771391;29;20257;-65
2022/10/25 00:56:07;;;;;;;4.78;1.75;;;11.50;86.80;;;10.16;100.00;96254.41;4773300;29;20756;-65
2022/10/25 00:58:34;;;;;;;3.38;1.48;;;11.50;86.70;;;10.14;100.00;96251.97;4759713;29;20220;-64
2022/10/25 01:01:02;;;;;;;4.20;1.52;;;11.50;86.80;;;10.15;100.00;96248.34;4789519;29;20518;-65
2022/10/25 01:03:28;;;;;;;5.97;1.92;;;11.60;86.60;;;10.13;100.00;96245.06;4771513;29;20526;-64
2022/10/25 01:05:54;;;;;;;4.20;1.60;;;11.50;86.60;;;10.12;100.00;96251.31;4756948;29;20502;-64
2022/10/25 01:08:21;;;;;;;6.88;1.70;;;11.50;86.60;;;10.08;100.00;96248.25;4770982;29;20394;-64
2022/10/25 01:10:47;;;;;;;4.72;2.17;;;11.40;86.80;;;10.07;100.00;96243.19;4771391;29;20404;-64
2022/10/25 01:13:13;;;;;;;3.70;2.53;;;11.50;86.70;;;10.07;100.00;96243.19;4753729;29;20457;-66
2022/10/25 01:15:57;;;;;;;5.00;3.10;;;11.50;86.60;;;10.07;100.00;96238.75;4765153;29;20208;-65
2022/10/25 01:18:46;;;;;;;6.18;2.83;;;11.50;86.70;;;10.04;100.00;96228.59;4787065;29;20367;-65
2022/10/25 01:21:35;;;;;;;4.25;1.90;;;11.50;86.90;;;10.01;100.00;96234.22;4785954;29;20611;-66
2022/10/25 01:24:48;;;;;;;6.70;2.60;;;11.40;87.00;;;9.99;100.00;96232.78;4790228;29;20358;-66
2022/10/25 01:27:37;;;;;;;3.35;2.20;;;11.40;87.10;;;9.98;100.00;96236.41;4773072;29;20476;-66
2022/10/25 01:30:24;;;;;;;5.60;1.45;;;11.40;87.20;;;9.96;100.00;96230.50;4773236;29;20974;-66
2022/10/25 01:33:30;;;;;;;2.70;1.70;;;11.30;87.10;;;9.94;100.00;96228.03;4757347;29;20244;-65
2022/10/25 01:36:13;;;;;;;3.08;1.65;;;11.30;87.10;;;9.94;100.00;96224.59;4754809;29;20433;-66
2022/10/25 01:39:11;;;;;;;2.88;1.77;;;11.40;87.00;;;9.95;100.00;96219.16;4773739;29;20241;-66
2022/10/25 01:42:05;;;;;;;3.63;1.90;;;11.40;86.80;;;9.97;100.00;96216.38;4768307;29;20675;-67
2022/10/25 01:45:08;;;;;;;2.88;1.52;;;11.50;86.60;;;9.97;100.00;96217.19;4771348;29;20398;-66
2022/10/25 01:47:48;;;;;;;3.88;1.70;;;11.50;86.30;;;9.98;100.00;96229.34;4773185;29;20207;-65
2022/10/25 01:50:27;;;;;;;3.78;1.80;;;11.50;86.00;;;9.98;100.00;96224.06;4792409;29;20811;-66
2022/10/25 01:52:53;;;;;;;2.85;1.45;;;11.50;85.80;;;9.98;100.00;96223.25;4801003;29;20770;-66
2022/10/25 01:55:19;;;;;;;2.65;1.85;;;11.50;85.60;;;9.94;100.00;96217.53;4751946;29;20461;-65
2022/10/25 01:57:57;;;;;;;3.97;1.52;;;11.50;85.30;;;9.95;100.00;96224.41;4762701;29;20339;-65
2022/10/25 02:00:24;;;;;;;4.03;1.40;;;11.50;85.10;;;9.91;100.00;96217.06;4772036;29;20827;-65
2022/10/25 02:03:08;;;;;;;2.40;1.30;;;11.50;85.00;;;9.93;100.00;96228.22;4779309;29;20538;-65
2022/10/25 02:05:49;;;;;;;3.65;1.63;;;11.50;84.80;;;9.90;100.00;96220.69;4801913;29;20301;-65
2022/10/25 02:08:33;;;;;;;3.28;1.65;;;11.40;84.60;;;9.88;100.00;96212.19;4786801;29;20205;-65
2022/10/25 02:11:26;;;;;;;4.53;1.67;;;11.40;84.50;;;9.85;100.00;96223.06;4783923;29;20220;-65
2022/10/25 02:14:18;;;;;;;2.78;1.40;;;11.40;84.70;;;9.83;100.00;96226.69;4771303;29;20280;-65
2022/10/25 02:17:12;;;;;;;4.05;1.58;;;11.40;84.60;;;9.80;100.00;96221.81;4782215;29;20489;-65
2022/10/25 02:19:48;;;;;;;36.83;28.20;;;11.40;84.40;;;9.79;100.00;96220.19;4784186;29;20505;-65
2022/10/25 02:22:14;;;;;;;12.88;8.98;;;11.40;84.70;;;9.79;100.00;96225.44;4760509;29;20185;-65
2022/10/25 02:24:43;;;;;;;14.15;10.20;;;11.40;85.10;;;9.81;100.00;96233.94;4772184;29;20260;-65
2022/10/25 02:27:09;;;;;;;6.70;3.50;;;11.40;85.60;;;9.82;100.00;96234.75;4769150;29;20366;-65
2022/10/25 02:29:35;;;;;;;4.07;2.22;;;11.50;85.70;;;9.85;100.00;96238.81;4756116;29;20556;-65
2022/10/25 02:32:03;;;;;;;27.50;17.00;;;11.50;85.50;;;9.88;100.00;96239.28;4786695;29;20264;-67
2022/10/25 02:34:29;;;;;;;34.83;26.20;;;11.50;85.80;;;9.93;100.00;96236.09;4775039;29;20365;-67
2022/10/25 02:36:55;;;;;;;6.97;5.25;;;11.60;85.80;;;9.95;100.00;96234.09;4754417;29;20463;-67
2022/10/25 02:39:22;;;;;;;3.80;2.05;;;11.60;85.70;;;9.97;100.00;96237.41;4764437;29;20365;-66
2022/10/25 02:41:48;;;;;;;2.75;1.42;;;11.60;85.60;;;10.00;100.00;96239.66;4746269;29;20500;-66
2022/10/25 02:44:15;;;;;;;2.72;1.45;;;11.50;85.50;;;10.01;100.00;96243.91;4780300;29;20603;-65
2022/10/25 02:46:41;;;;;;;3.75;1.83;;;11.60;85.50;;;9.99;100.00;96240.66;4769502;29;20721;-66
2022/10/25 02:49:07;;;;;;;2.97;1.30;;;11.50;85.60;;;9.97;100.00;96247.91;4739776;29;20215;-68
2022/10/25 02:51:33;;;;;;;3.13;1.30;;;11.40;85.70;;;9.95;100.00;96244.63;4771416;29;20576;-67
2022/10/25 02:54:00;;;;;;;5.72;1.00;;;11.30;85.90;;;9.93;100.00;96247.44;4797920;29;20560;-66
2022/10/25 02:56:26;;;;;;;3.80;1.25;;;11.40;85.90;;;9.92;100.00;96250.25;4753141;29;20315;-66
2022/10/25 02:58:55;;;;;;;2.45;1.20;;;11.30;85.90;;;9.91;100.00;96240.72;4748963;29;20666;-66
2022/10/25 03:01:21;;;;;;;3.20;1.20;;;11.30;85.90;;;9.90;100.00;96246.97;4765280;29;20625;-65
2022/10/25 03:03:48;;;;;;;7.55;1.33;;;11.30;85.80;;;9.89;100.00;96245.34;4755598;29;20276;-66
2022/10/25 03:06:14;;;;;;;1.77;0.90;;;11.30;85.90;;;9.90;100.00;96241.72;4770878;29;20220;-66
2022/10/25 03:08:41;;;;;;;1.63;1.00;;;11.30;85.80;;;9.92;100.00;96250.25;4765718;29;20365;-66
2022/10/25 03:11:08;;;;;;;2.60;0.98;;;11.40;85.70;;;9.91;100.00;96245.97;4760914;29;20434;-65
2022/10/25 03:13:34;;;;;;;2.05;1.05;;;11.40;85.60;;;9.93;100.00;96246.63;4762223;29;20319;-66
2022/10/25 03:16:00;;;;;;;6.93;1.45;;;11.40;85.60;;;9.94;100.00;96243.81;4772056;29;20285;-66
2022/10/25 03:18:26;;;;;;;2.05;0.98;;;11.50;85.40;;;9.95;100.00;96245.44;4767704;29;20355;-67
2022/10/25 03:20:56;;;;;;;3.63;1.48;;;11.50;85.30;;;9.96;100.00;96251.53;4761421;29;20041;-63
2022/10/25 03:23:23;;;;;;;2.85;1.10;;;11.50;85.10;;;9.96;100.00;96249.72;4771080;29;20351;-65
2022/10/25 03:25:53;;;;;;;3.63;2.00;;;11.50;85.10;;;9.97;100.00;96242.66;4772647;29;20629;-66
2022/10/25 03:28:19;;;;;;;2.97;1.43;;;11.60;85.10;;;9.97;100.00;96250.53;4772925;29;20472;-65
2022/10/25 03:30:45;;;;;;;3.22;1.08;;;11.50;85.00;;;9.95;100.00;96255.94;4798310;29;20649;-65
2022/10/25 03:33:11;;;;;;;4.55;2.70;;;11.50;85.20;;;9.95;100.00;96255.94;4755691;29;20701;-65
2022/10/25 03:35:37;;;;;;;9.82;5.43;;;11.50;85.30;;;9.97;100.00;96261.03;4766208;29;20204;-66
2022/10/25 03:38:03;;;;;;;8.82;5.95;;;11.60;85.20;;;10.01;100.00;96271.00;4748962;29;20277;-66
2022/10/25 03:40:30;;;;;;;8.32;4.88;;;11.60;85.20;;;10.03;100.00;96279.53;4775188;29;20468;-65
2022/10/25 03:42:56;;;;;;;3.30;1.50;;;11.70;84.90;;;10.03;100.00;96274.28;4776460;29;20837;-65
2022/10/25 03:45:22;;;;;;;1.92;1.00;;;11.60;84.70;;;10.02;100.00;96277.09;4742318;29;20212;-68
2022/10/25 03:47:48;;;;;;;2.45;1.20;;;11.50;84.70;;;10.01;100.00;96275.44;4769431;29;20365;-69
2022/10/25 03:50:14;;;;;;;1.98;0.95;;;11.60;84.80;;;10.02;100.00;96263.94;4786960;29;20060;-68
2022/10/25 03:52:40;;;;;;;1.85;0.93;;;11.60;84.80;;;10.03;100.00;96276.09;4860750;29;20052;-65
2022/10/25 03:55:06;;;;;;;2.58;0.90;;;11.60;84.80;;;10.03;100.00;96268.19;4855481;29;20879;-65
2022/10/25 03:57:32;;;;;;;2.13;1.02;;;11.60;84.90;;;10.02;100.00;96270.00;4856367;29;20025;-65
2022/10/25 03:59:58;;;;;;;2.05;0.88;;;11.60;84.70;;;10.03;100.00;96281.34;4880073;29;20060;-65
2022/10/25 04:02:25;;;;;;;2.05;0.95;;;11.60;84.80;;;10.02;100.00;96277.09;4873334;29;20343;-64
2022/10/25 04:04:51;;;;;;;1.27;0.90;;;11.60;84.90;;;10.02;100.00;96271.81;4845094;29;20041;-64
2022/10/25 04:07:17;;;;;;;2.85;1.10;;;11.60;84.90;;;10.02;100.00;96277.91;4853809;29;20044;-63
2022/10/25 04:09:43;;;;;;;2.42;1.40;;;11.50;84.90;;;9.99;100.00;96280.88;4851995;29;20129;-65
2022/10/25 04:12:08;;;;;;;3.22;1.27;;;11.50;85.00;;;9.98;100.00;96288.94;4841086;29;20624;-65
2022/10/25 04:14:34;;;;;;;3.85;1.50;;;11.50;85.10;;;9.97;100.00;96279.44;4875501;29;20045;-65
2022/10/25 04:17:00;;;;;;;5.25;1.88;;;11.50;85.10;;;9.95;100.00;96270.91;4852897;29;20497;-66
2022/10/25 04:19:26;;;;;;;4.22;1.50;;;11.40;85.30;;;9.94;100.00;96280.59;4864110;29;20033;-64
2022/10/25 04:21:52;;;;;;;2.80;1.20;;;11.40;85.40;;;9.92;100.00;96271.25;4866796;29;20381;-65
2022/10/25 04:24:17;;;;;;;2.55;1.23;;;11.40;85.40;;;9.91;100.00;96272.25;4859638;29;20052;-66
2022/10/25 04:26:43;;;;;;;1.88;1.05;;;11.40;85.40;;;9.90;100.00;96274.06;4860025;29;20549;-65
2022/10/25 04:29:09;;;;;;;3.42;1.30;;;11.40;85.50;;;9.87;100.00;96269.19;4874067;29;20032;-64
2022/10/25 04:31:35;;;;;;;5.60;1.80;;;11.40;85.60;;;9.86;100.00;96266.72;4867066;29;20036;-66
2022/10/25 04:34:01;;;;;;;6.55;2.80;;;11.40;85.60;;;9.85;100.00;96270.34;4872203;29;20052;-65
2022/10/25 04:36:30;;;;;;;20.40;8.25;;;11.30;85.60;;;9.85;100.00;96267.72;4856803;29;20037;-66
2022/10/25 04:38:57;;;;;;;33.97;14.98;;;11.40;85.70;;;9.85;100.00;96254.59;4839945;29;20097;-65
2022/10/25 04:41:23;;;;;;;18.33;8.68;;;11.40;85.90;;;9.85;100.00;96259.84;4866605;29;20041;-65
2022/10/25 04:43:49;;;;;;;10.88;5.30;;;11.40;85.90;;;9.85;100.00;96260.66;4858670;29;20028;-65
2022/10/25 04:46:15;;;;;;;15.25;7.68;;;11.40;85.90;;;9.87;100.00;96263.09;4851053;29;20084;-65
2022/10/25 04:48:41;;;;;;;12.75;5.65;;;11.40;85.90;;;9.88;100.00;96265.56;4853180;29;20037;-65
2022/10/25 04:51:08;;;;;;;7.15;3.15;;;11.40;85.90;;;9.89;100.00;96269.00;4859062;29;20064;-65
2022/10/25 04:53:34;;;;;;;6.25;2.47;;;11.40;86.00;;;9.89;100.00;96272.44;4875234;29;20521;-65
2022/10/25 04:56:02;;;;;;;6.65;2.80;;;11.40;86.00;;;9.92;100.00;96268.63;4840947;29;20049;-66
2022/10/25 04:58:28;;;;;;;7.95;2.55;;;11.40;86.00;;;9.92;100.00;96276.50;4872963;29;20128;-66
2022/10/25 05:01:05;;;;;;;10.98;3.85;;;11.40;86.00;;;9.93;100.00;96281.59;4858203;29;20046;-66
2022/10/25 05:03:31;;;;;;;11.98;5.20;;;11.50;86.10;;;9.93;100.00;96288.66;4861012;29;20032;-66
2022/10/25 05:06:21;;;;;;;9.38;4.05;;;11.50;86.10;;;9.94;100.00;96285.03;4864537;29;20044;-66
2022/10/25 05:08:48;;;;;;;8.73;2.97;;;11.40;86.10;;;9.93;100.00;96283.41;4885723;29;20103;-65
2022/10/25 05:11:16;;;;;;;7.10;2.33;;;11.40;86.20;;;9.94;100.00;96279.78;4855475;29;20045;-66
2022/10/25 05:13:42;;;;;;;4.35;1.70;;;11.40;86.20;;;9.94;100.00;96285.03;4855613;29;20421;-65
2022/10/25 05:16:10;;;;;;;5.05;1.33;;;11.50;86.30;;;9.96;100.00;96288.31;4873085;29;20055;-65
2022/10/25 05:18:35;;;;;;;2.17;1.25;;;11.50;86.50;;;9.97;100.00;96288.13;4839774;29;20037;-65
2022/10/25 05:21:04;;;;;;;2.53;1.45;;;11.50;86.50;;;10.00;100.00;96286.97;4855091;29;20104;-66
2022/10/25 05:23:30;;;;;;;2.63;1.15;;;11.50;86.50;;;10.02;100.00;96298.91;4856046;29;20044;-65
2022/10/25 05:26:22;;;;;;;4.93;1.10;;;11.50;86.60;;;10.06;100.00;96299.38;4863783;29;20049;-66
2022/10/25 05:28:49;;;;;;;3.53;1.17;;;11.60;86.60;;;10.09;100.00;96293.75;4885568;29;20096;-65
2022/10/25 05:31:28;;;;;;;2.65;1.25;;;11.60;86.60;;;10.12;100.00;96294.19;4842703;29;20037;-65
2022/10/25 05:33:57;;;;;;;3.35;1.23;;;11.60;86.40;;;10.15;100.00;96303.53;4871685;29;20064;-65
2022/10/25 05:36:24;;;;;;;3.95;1.40;;;11.60;86.30;;;10.20;100.00;96305.63;4873162;29;20044;-65
2022/10/25 05:38:49;;;;;;;3.20;1.35;;;11.70;86.20;;;10.23;100.00;96300.03;4858815;29;20044;-66
2022/10/25 05:41:16;;;;;;;4.18;1.50;;;11.70;86.00;;;10.25;100.00;96309.38;4858720;29;20036;-66
2022/10/25 05:43:42;;;;;;;4.75;1.20;;;11.80;85.90;;;10.27;100.00;96302.13;4858553;29;20067;-65
2022/10/25 05:46:14;;;;;;;2.70;1.13;;;11.80;85.70;;;10.31;100.00;96308.66;4855420;29;20128;-66
2022/10/25 05:48:40;;;;;;;1.67;1.10;;;11.90;85.60;;;10.34;100.00;96310.09;4870512;29;20041;-65
2022/10/25 05:51:25;;;;;;;5.40;1.10;;;12.00;85.40;;;10.34;100.00;96308.28;4870392;29;20048;-67
2022/10/25 05:53:53;;;;;;;2.75;1.27;;;11.90;85.50;;;10.35;100.00;96307.28;4886244;29;20045;-66
2022/10/25 05:56:20;;;;;;;2.58;1.20;;;12.00;85.40;;;10.38;100.00;96303.47;4872352;29;20053;-65
2022/10/25 05:58:46;;;;;;;2.85;1.17;;;12.00;85.30;;;10.38;100.00;96314.81;4858251;29;20044;-65
2022/10/25 06:01:17;;;;;;;4.38;1.15;;;12.00;85.30;;;10.38;100.00;96308.72;4857822;29;20055;-66
2022/10/25 06:03:46;;;;;;;3.42;1.45;;;11.90;85.20;;;10.40;100.00;96312.00;4859674;29;20137;-65
2022/10/25 06:06:12;;;;;;;6.00;1.30;;;12.00;85.50;;;10.41;100.00;96319.72;4857845;29;20135;-65
2022/10/25 06:08:38;;;;;;;3.55;1.30;;;11.90;85.30;;;10.41;100.00;96324.97;4858253;29;20040;-66
2022/10/25 06:11:07;;;;;;;3.97;1.35;;;11.90;85.40;;;10.42;100.00;96328.41;4857755;29;20392;-65
2022/10/25 06:13:33;;;;;;;3.40;1.42;;;11.90;85.40;;;10.43;100.00;96333.50;4844121;29;20087;-66
2022/10/25 06:16:02;;;;;;;3.13;1.13;;;12.00;85.30;;;10.43;100.00;96330.06;4869938;29;20037;-66
2022/10/25 06:18:28;;;;;;;3.67;1.02;;;12.00;85.30;;;10.46;100.00;96342.03;4855455;29;20501;-67
2022/10/25 06:20:54;;;;;;;2.90;1.20;;;12.10;85.30;;;10.47;100.00;96338.41;4824572;29;20045;-66
2022/10/25 06:23:20;;;;;;;1.55;1.00;;;12.10;84.90;;;10.46;100.00;96342.03;4855553;29;20033;-66
2022/10/25 06:25:45;;;;;;;5.65;2.00;;;12.10;84.80;;;10.45;100.00;96345.66;4863605;29;20075;-65
2022/10/25 06:28:11;;;;;;;1.85;1.13;;;12.10;84.80;;;10.43;100.00;96349.28;4842223;29;20037;-66
2022/10/25 06:30:37;;;;;;;8.80;2.42;;;12.00;84.60;;;10.42;100.00;96352.91;4855811;29;20341;-65
2022/10/25 06:33:03;;;;;;;3.47;1.13;;;12.10;84.60;;;10.42;100.00;96352.91;4854747;29;20457;-65
2022/10/25 06:35:29;;;;;;;3.58;1.20;;;12.10;84.70;;;10.43;100.00;96359.78;4861239;29;20056;-65
2022/10/25 06:38:01;;;;;;;2.20;1.02;;;12.10;84.70;;;10.43;100.00;96365.06;4857550;29;20404;-65
2022/10/25 06:40:27;;;;;;;5.05;1.55;;;12.10;84.50;;;10.43;100.00;96359.78;4858764;29;20052;-65
2022/10/25 06:42:55;;;;;;;3.22;1.25;;;12.10;84.70;;;10.45;100.00;96361.44;4873760;29;20059;-65
2022/10/25 06:45:22;;;;;;;4.40;1.10;;;12.10;84.70;;;10.45;100.00;96356.16;4863199;29;20068;-66
2022/10/25 06:47:47;;;;;;;5.38;1.48;;;12.10;84.60;;;10.49;100.00;96357.44;4857283;29;20421;-65
2022/10/25 06:50:13;;;;;;;3.65;1.23;;;12.20;84.40;;;10.50;100.00;96359.88;4858249;29;20037;-65
2022/10/25 06:52:39;;;;;;;4.07;1.20;;;12.20;84.40;;;10.54;100.00;96365.59;4858383;29;20493;-66
2022/10/25 06:55:05;;;;;;;2.67;1.20;;;12.30;84.30;;;10.60;100.00;96364.84;4856233;29;20060;-66
2022/10/25 06:57:31;;;;;;;3.03;0.95;;;12.40;84.10;;;10.66;100.00;96364.16;4864952;29;20513;-65
2022/10/25 06:59:57;;;;;;;3.13;1.00;;;12.50;84.00;;;10.75;100.00;96368.28;4873153;29;20066;-66
2022/10/25 07:02:22;;;;;;;3.50;1.25;;;12.60;83.70;;;10.85;100.00;96363.56;4857981;29;20057;-65
2022/10/25 07:04:48;;;;;;;4.18;1.00;;;12.80;83.00;;;10.97;100.00;96369.19;4854776;29;20043;-65
2022/10/25 07:07:14;;;;;;;3.40;1.33;;;13.10;82.10;;;11.10;100.00;96369.34;4849859;29;20425;-63
2022/10/25 07:09:40;;;;;;;2.70;1.42;;;13.30;81.80;;;11.22;100.00;96370.47;4857584;29;20033;-66
2022/10/25 07:12:06;;;;;;;3.65;1.30;;;13.40;81.10;;;11.34;100.00;96381.34;4858187;29;20441;-66
2022/10/25 07:14:32;;;;;;;3.17;1.20;;;13.50;80.80;;;11.47;100.00;96384.09;4854543;29;20517;-66
2022/10/25 07:16:58;;;;;;;4.13;1.10;;;13.60;80.10;;;11.63;100.00;96389.13;4856487;29;20040;-65
2022/10/25 07:19:24;;;;;;;4.28;1.30;;;13.90;79.80;;;11.81;100.00;96390.56;4878124;29;20029;-65
2022/10/25 07:21:50;;;;;;;4.20;0.90;;;14.20;78.60;;;12.02;100.00;96382.63;4839431;29;20025;-65
2022/10/25 07:24:16;;;;;;;1.92;1.00;;;14.70;77.20;;;12.26;100.00;96384.00;4843935;29;20048;-65
2022/10/25 07:26:42;;;;;;;4.80;1.20;;;15.10;75.80;;;12.53;100.00;96382.34;4858061;29;20520;-65
2022/10/25 07:29:07;;;;;;;1.50;0.88;;;15.60;74.00;;;12.81;100.00;96382.31;4856622;29;20052;-65
2022/10/25 07:31:40;;;;;;;1.67;0.80;;;16.10;73.30;;;13.08;100.00;96389.31;4858162;29;20025;-66
2022/10/25 07:34:05;;;;;;;1.50;0.70;;;16.10;72.00;;;13.28;100.00;96393.91;4855678;29;20533;-65
2022/10/25 07:36:31;;;;;;;6.03;1.45;;;16.00;72.10;;;13.40;100.00;96395.78;4850004;29;20041;-66
2022/10/25 07:38:57;;;;;;;1.40;0.80;;;15.70;72.80;;;13.49;100.00;96402.50;4871346;29;20049;-67
2022/10/25 07:41:24;;;;;;;2.00;0.70;;;15.70;73.50;;;13.59;100.00;96401.31;4857433;29;20430;-65
2022/10/25 07:43:49;;;;;;;4.65;1.60;;;15.70;73.30;;;13.64;100.00;96401.53;4854745;29;20084;-65
2022/10/25 07:46:15;;;;;;;2.70;1.35;;;15.80;73.60;;;13.71;100.00;96397.88;4849755;29;20465;-65
2022/10/25 07:48:41;;;;;;;3.17;2.17;;;15.90;73.60;;;13.78;100.00;96395.22;4848569;29;20033;-65
2022/10/25 07:51:11;;;;;;;4.80;2.20;;;15.90;73.80;;;13.85;100.00;96400.53;4843772;29;20498;-66
2022/10/25 07:53:37;;;;;;;4.88;2.03;;;15.90;73.50;;;13.90;100.00;96400.75;4895274;29;20033;-65
2022/10/25 07:56:03;;;;;;;3.40;1.15;;;16.00;73.30;;;13.94;100.00;96410.72;4857259;29;20135;-65
2022/10/25 07:58:29;;;;;;;1.90;0.95;;;16.00;73.40;;;14.00;100.00;96409.09;4856672;29;20127;-65
2022/10/25 08:01:02;;;;;;;3.85;1.00;;;16.10;73.30;;;14.07;100.00;96408.09;4849943;29;20051;-66
2022/10/25 08:03:28;;;;;;;3.42;1.10;;;16.20;72.70;;;14.11;100.00;96405.84;4855069;29;20503;-65
2022/10/25 08:05:54;;;;;;;2.78;1.00;;;16.20;72.90;;;14.16;100.00;96407.88;4853828;29;20036;-65
2022/10/25 08:08:22;;;;;;;3.13;1.10;;;16.10;72.40;;;14.21;100.00;96402.78;4855598;29;20404;-66
2022/10/25 08:10:47;;;;;;;2.20;0.90;;;16.20;73.10;;;14.25;100.00;96399.53;4857463;29;20045;-66
2022/10/25 08:13:13;;;;;;;1.85;0.68;;;16.20;72.80;;;14.27;100.00;96397.50;4861179;29;20495;-66
2022/10/25 08:15:42;;;;;;;2.45;0.95;;;16.10;72.60;;;14.26;100.00;96392.44;4853244;29;20040;-66
2022/10/25 08:18:11;;;;;;;3.47;1.17;;;15.90;72.90;;;14.25;100.00;96383.66;4860267;29;20335;-66
2022/10/25 08:20:37;;;;;;;3.42;0.85;;;16.10;73.10;;;14.28;100.00;96395.69;4861533;29;20072;-65
2022/10/25 08:23:02;;;;;;;2.65;1.00;;;16.10;72.80;;;14.32;100.00;96384.47;4845054;29;20513;-65
2022/10/25 08:25:28;;;;;;;3.70;1.20;;;16.30;72.20;;;14.35;100.00;96377.94;4851630;29;20041;-65
2022/10/25 08:27:54;;;;;;;3.17;1.08;;;16.30;71.80;;;14.39;100.00;96379.16;4859580;29;20557;-65
2022/10/25 08:30:20;;;;;;;2.03;1.00;;;16.40;72.20;;;14.46;100.00;96380.00;4875776;29;20040;-65
2022/10/25 08:32:46;;;;;;;2.33;1.10;;;16.80;70.70;;;14.63;100.00;96380.38;4874688;29;20051;-65
2022/10/25 08:35:12;;;;;;;3.92;0.90;;;17.90;68.00;;;14.83;100.00;96388.28;4851451;29;20037;-65
2022/10/25 08:37:37;;;;;;;2.30;1.00;;;18.00;66.50;;;15.06;100.00;96388.59;4856601;29;20033;-65
2022/10/25 08:40:04;;;;;;;5.32;0.95;;;18.60;64.40;;;15.29;100.00;96391.56;4841283;29;20041;-66
2022/10/25 08:42:47;;;;;;;2.55;0.80;;;19.10;62.20;;;15.54;100.00;96396.13;4857982;29;20549;-66
2022/10/25 08:45:25;;;;;;;2.13;0.80;;;19.40;61.10;;;15.88;100.00;96397.59;4854099;29;20123;-65
2022/10/25 08:47:52;;;;;;;2.72;1.08;;;20.30;59.30;;;16.16;100.00;96392.66;4888377;29;20037;-65
2022/10/25 08:50:49;;;;;;;2.60;1.05;;;20.20;58.20;;;16.37;100.00;96396.78;4856668;29;20501;-65
2022/10/25 08:53:47;;;;;;;4.05;0.90;;;20.40;59.00;;;16.79;98.11;96391.72;4867208;29;20049;-66
2022/10/25 08:56:15;;;;;;;3.85;1.10;;;21.30;55.10;;;17.05;100.00;96388.75;4834369;29;20100;-65
2022/10/25 08:58:57;;;;;;;3.50;0.98;;;21.60;53.40;;;17.38;94.60;96393.66;4858984;29;20079;-65
2022/10/25 09:01:38;;;;;;;3.33;0.82;;;22.20;52.60;;;17.71;92.19;96387.13;4860060;29;20043;-66
2022/10/25 09:04:03;;;;;;;2.03;0.88;;;22.70;50.80;;;18.04;97.54;96391.94;4854006;29;20531;-65
2022/10/25 09:06:58;;;;;;;2.53;1.10;;;23.20;50.10;;;18.50;86.86;96393.03;4851944;29;20032;-65
2022/10/25 09:09:34;;;;;;;1.80;0.90;;;24.10;47.60;;;18.88;89.72;96381.94;4831941;29;20408;-66
2022/10/25 09:12:21;;;;;;;3.88;0.90;;;24.80;46.40;;;19.25;84.75;96382.44;4882896;29;20033;-66
2022/10/25 09:15:01;;;;;;;3.05;0.90;;;25.30;44.00;;;19.60;82.89;96395.69;4886858;29;20060;-65
2022/10/25 09:18:00;;;;;;;1.60;0.65;;;25.90;43.40;;;19.97;77.79;96385.41;4874678;29;20040;-66
2022/10/25 09:20:31;;;;;;;3.28;0.80;;;26.50;40.80;;;20.33;82.37;96394.00;4858719;29;20033;-66
2022/10/25 09:23:00;;;;;;;2.38;0.77;;;27.70;39.50;;;20.67;85.04;96390.28;4859946;29;20165;-66
2022/10/25 09:25:56;;;;;;;4.32;0.55;;;28.40;38.10;;;21.13;75.34;96382.09;4870662;29;20099;-66
2022/10/25 09:29:10;;;;;;;2.25;0.65;;;29.50;36.80;;;21.60;74.68;96390.44;4884188;29;20029;-65
2022/10/25 09:31:39;;;;;;;2.50;0.50;;;30.50;34.80;;;22.10;80.89;96392.00;4851803;29;20575;-65
2022/10/25 09:34:07;;;;;;;2.20;0.80;;;31.50;33.70;;;22.50;82.59;96384.31;4890835;29;20561;-67
2022/10/25 09:36:40;;;;;;;6.05;3.60;;;32.20;32.20;;;22.93;73.88;96374.41;4874336;29;20577;-65
2022/10/25 09:39:37;;;;;;;7.20;5.57;;;33.20;30.50;;;23.48;67.49;96364.97;4874235;29;20063;-66
2022/10/25 09:42:03;;;;;;;3.63;0.80;;;33.90;30.10;;;23.89;79.49;96373.16;4892554;29;20053;-66
2022/10/25 09:44:36;;;;;;;8.35;5.25;;;34.50;28.90;;;24.29;67.09;96369.72;4848936;29;20044;-64
2022/10/25 09:47:34;;;;;;;4.93;0.82;;;35.10;27.90;;;24.77;60.79;96370.22;4870920;29;20104;-65
2022/10/25 09:50:24;;;;;;;3.28;0.75;;;35.10;26.50;;;25.18;60.78;96371.75;4871527;29;20081;-65
2022/10/25 09:53:08;;;;;;;3.40;0.80;;;35.50;27.00;;;25.60;60.14;96373.97;4863317;29;20060;-64
2022/10/25 09:55:38;;;;;;;3.03;0.80;;;36.40;26.60;;;26.05;62.72;96382.91;4881615;29;20525;-64
2022/10/25 09:58:04;;;;;;;3.17;0.63;;;36.60;25.50;;;26.37;66.26;96382.41;4873707;29;20040;-64
2022/10/25 10:00:32;;;;;;;5.50;0.98;;;36.50;26.20;;;26.66;63.86;96379.72;4874127;29;20115;-65
2022/10/25 10:02:58;;;;;;;3.75;0.80;;;37.00;25.30;;;27.03;62.80;96389.09;4877440;29;20036;-66
2022/10/25 10:05:24;;;;;;;1.85;0.68;;;37.10;25.10;;;27.36;60.57;96380.06;4857441;29;20048;-64
2022/10/25 10:07:50;;;;;;;1.45;0.47;;;37.30;24.50;;;27.59;59.29;96377.63;4857456;29;20103;-64
2022/10/25 10:10:23;;;;;;;2.63;0.60;;;37.20;24.10;;;27.84;50.19;96371.09;4874166;29;20104;-64
2022/10/25 10:13:03;;;;;;;2.55;0.70;;;37.20;24.50;;;27.99;49.11;96362.75;4868747;29;20052;-64
2022/10/25 10:16:00;;;;;;;7.43;0.93;;;37.10;24.30;;;28.17;47.99;96366.56;4848822;29;20548;-65
2022/10/25 10:18:33;;;;;;;2.70;2.08;;;37.60;24.50;;;28.30;48.71;96368.56;4870129;29;20064;-65
2022/10/25 10:21:08;;;;;;;6.45;1.60;;;37.50;24.50;;;28.37;47.91;96363.56;4852587;29;20036;-65
2022/10/25 10:23:48;;;;;;;3.65;0.70;;;37.10;24.10;;;28.27;44.80;96359.09;4866069;29;20040;-65
2022/10/25 10:26:24;;;;;;;2.70;0.70;;;35.40;25.70;;;27.96;46.91;96361.44;4870634;29;20051;-65
2022/10/25 10:29:04;;;;;;;4.72;0.60;;;33.90;27.90;;;27.59;46.80;96364.09;4853969;29;20049;-64
2022/10/25 10:31:42;;;;;;;2.15;0.73;;;32.80;29.10;;;27.15;46.88;96359.78;4857067;29;20037;-66